sensor_id;sensor_type;location;lat;lon;timestamp;P1;durP1;ratioP1;P2;durP2;ratioP2
5060;SDS011;2549;52.128;21.068;2023-08-31T00:01:08;6.30;;;5.37;;
5060;SDS011;2549;52.128;21.068;2023-08-31T00:03:36;5.30;;;4.10;;
5060;SDS011;2549;52.128;21.068;2023-08-31T00:06:03;4.37;;;3.97;;
5060;SDS011;2549;52.128;21.068;2023-08-31T00:08:30;18.70;;;4.50;;
5060;SDS011;2549;52.128;21.068;2023-08-31T00:10:57;3.87;;;3.57;;
5060;SDS011;2549;52.128;21.068;2023-08-31T00:13:27;4.07;;;3.77;;
5060;SDS011;2549;52.128;21.068;2023-08-31T00:15:56;4.20;;;3.80;;
5060;SDS011;2549;52.128;21.068;2023-08-31T00:18:24;4.33;;;3.80;;
5060;SDS011;2549;52.128;21.068;2023-08-31T00:20:52;6.43;;;4.10;;
5060;SDS011;2549;52.128;21.068;2023-08-31T00:23:19;9.43;;;4.10;;
5060;SDS011;2549;52.128;21.068;2023-08-31T00:25:46;14.70;;;3.90;;
5060;SDS011;2549;52.128;21.068;2023-08-31T00:28:18;9.27;;;3.80;;
5060;SDS011;2549;52.128;21.068;2023-08-31T00:30:46;6.10;;;4.03;;
5060;SDS011;2549;52.128;21.068;2023-08-31T00:33:13;4.30;;;3.90;;
5060;SDS011;2549;52.128;21.068;2023-08-31T00:35:41;6.97;;;4.10;;
5060;SDS011;2549;52.128;21.068;2023-08-31T00:38:12;6.73;;;3.83;;
5060;SDS011;2549;52.128;21.068;2023-08-31T00:40:41;10.53;;;4.63;;
5060;SDS011;2549;52.128;21.068;2023-08-31T00:43:11;3.90;;;3.60;;
5060;SDS011;2549;52.128;21.068;2023-08-31T00:45:41;4.20;;;3.57;;
5060;SDS011;2549;52.128;21.068;2023-08-31T00:48:09;6.30;;;3.60;;
5060;SDS011;2549;52.128;21.068;2023-08-31T00:50:36;4.10;;;3.70;;
5060;SDS011;2549;52.128;21.068;2023-08-31T00:53:03;3.90;;;3.60;;
5060;SDS011;2549;52.128;21.068;2023-08-31T00:55:31;4.00;;;3.30;;
5060;SDS011;2549;52.128;21.068;2023-08-31T00:57:59;5.40;;;4.20;;
5060;SDS011;2549;52.128;21.068;2023-08-31T01:00:30;12.40;;;3.80;;
5060;SDS011;2549;52.128;21.068;2023-08-31T01:03:12;4.10;;;3.70;;
5060;SDS011;2549;52.128;21.068;2023-08-31T01:05:52;4.40;;;3.83;;
5060;SDS011;2549;52.128;21.068;2023-08-31T01:08:50;3.43;;;3.13;;
5060;SDS011;2549;52.128;21.068;2023-08-31T01:11:27;4.73;;;3.63;;
5060;SDS011;2549;52.128;21.068;2023-08-31T01:14:01;4.57;;;3.70;;
5060;SDS011;2549;52.128;21.068;2023-08-31T01:16:34;4.03;;;3.63;;
5060;SDS011;2549;52.128;21.068;2023-08-31T01:19:04;4.50;;;3.37;;
5060;SDS011;2549;52.128;21.068;2023-08-31T01:21:40;4.30;;;3.90;;
5060;SDS011;2549;52.128;21.068;2023-08-31T01:24:13;8.70;;;3.53;;
5060;SDS011;2549;52.128;21.068;2023-08-31T01:26:40;4.83;;;3.47;;
5060;SDS011;2549;52.128;21.068;2023-08-31T01:29:08;6.00;;;3.47;;
5060;SDS011;2549;52.128;21.068;2023-08-31T01:31:41;7.43;;;3.03;;
5060;SDS011;2549;52.128;21.068;2023-08-31T01:34:09;4.53;;;3.30;;
5060;SDS011;2549;52.128;21.068;2023-08-31T01:36:36;7.30;;;3.30;;
5060;SDS011;2549;52.128;21.068;2023-08-31T01:39:17;3.17;;;2.97;;
5060;SDS011;2549;52.128;21.068;2023-08-31T01:41:53;3.33;;;3.13;;
5060;SDS011;2549;52.128;21.068;2023-08-31T01:44:23;4.97;;;3.60;;
5060;SDS011;2549;52.128;21.068;2023-08-31T01:46:52;4.30;;;3.90;;
5060;SDS011;2549;52.128;21.068;2023-08-31T01:49:20;9.53;;;3.83;;
5060;SDS011;2549;52.128;21.068;2023-08-31T01:51:47;6.73;;;3.97;;
5060;SDS011;2549;52.128;21.068;2023-08-31T01:54:14;14.23;;;3.77;;
5060;SDS011;2549;52.128;21.068;2023-08-31T01:56:41;4.77;;;3.07;;
5060;SDS011;2549;52.128;21.068;2023-08-31T01:59:08;4.90;;;3.50;;
5060;SDS011;2549;52.128;21.068;2023-08-31T02:01:34;4.73;;;3.23;;
5060;SDS011;2549;52.128;21.068;2023-08-31T02:04:02;5.20;;;3.40;;
5060;SDS011;2549;52.128;21.068;2023-08-31T02:06:29;3.93;;;3.47;;
5060;SDS011;2549;52.128;21.068;2023-08-31T02:08:56;6.27;;;3.67;;
5060;SDS011;2549;52.128;21.068;2023-08-31T02:11:23;3.33;;;3.10;;
5060;SDS011;2549;52.128;21.068;2023-08-31T02:13:49;5.17;;;3.60;;
5060;SDS011;2549;52.128;21.068;2023-08-31T02:16:16;4.60;;;3.83;;
5060;SDS011;2549;52.128;21.068;2023-08-31T02:18:43;6.50;;;3.27;;
5060;SDS011;2549;52.128;21.068;2023-08-31T02:21:10;3.67;;;3.37;;
5060;SDS011;2549;52.128;21.068;2023-08-31T02:23:37;4.60;;;3.73;;
5060;SDS011;2549;52.128;21.068;2023-08-31T02:26:03;3.50;;;3.30;;
5060;SDS011;2549;52.128;21.068;2023-08-31T02:28:30;3.00;;;2.80;;
5060;SDS011;2549;52.128;21.068;2023-08-31T02:31:01;4.50;;;3.13;;
5060;SDS011;2549;52.128;21.068;2023-08-31T02:33:29;3.70;;;3.40;;
5060;SDS011;2549;52.128;21.068;2023-08-31T02:35:56;2.73;;;2.63;;
5060;SDS011;2549;52.128;21.068;2023-08-31T02:38:23;3.30;;;3.10;;
5060;SDS011;2549;52.128;21.068;2023-08-31T02:40:50;3.80;;;3.47;;
5060;SDS011;2549;52.128;21.068;2023-08-31T02:43:17;6.20;;;3.20;;
5060;SDS011;2549;52.128;21.068;2023-08-31T02:45:44;3.60;;;3.40;;
5060;SDS011;2549;52.128;21.068;2023-08-31T02:48:10;6.57;;;3.37;;
5060;SDS011;2549;52.128;21.068;2023-08-31T02:50:38;3.60;;;3.30;;
5060;SDS011;2549;52.128;21.068;2023-08-31T02:53:05;6.20;;;3.53;;
5060;SDS011;2549;52.128;21.068;2023-08-31T02:55:32;2.87;;;2.67;;
5060;SDS011;2549;52.128;21.068;2023-08-31T02:57:59;2.83;;;2.63;;
5060;SDS011;2549;52.128;21.068;2023-08-31T03:00:26;4.10;;;2.80;;
5060;SDS011;2549;52.128;21.068;2023-08-31T03:02:54;6.33;;;3.23;;
5060;SDS011;2549;52.128;21.068;2023-08-31T03:05:21;3.10;;;2.90;;
5060;SDS011;2549;52.128;21.068;2023-08-31T03:07:48;3.23;;;2.93;;
5060;SDS011;2549;52.128;21.068;2023-08-31T03:10:15;2.57;;;2.40;;
5060;SDS011;2549;52.128;21.068;2023-08-31T03:12:42;2.93;;;2.40;;
5060;SDS011;2549;52.128;21.068;2023-08-31T03:15:09;2.40;;;2.23;;
5060;SDS011;2549;52.128;21.068;2023-08-31T03:17:36;2.30;;;2.20;;
5060;SDS011;2549;52.128;21.068;2023-08-31T03:20:04;2.57;;;2.37;;
5060;SDS011;2549;52.128;21.068;2023-08-31T03:22:32;2.57;;;2.47;;
5060;SDS011;2549;52.128;21.068;2023-08-31T03:24:59;3.70;;;2.70;;
5060;SDS011;2549;52.128;21.068;2023-08-31T03:27:26;3.27;;;2.97;;
5060;SDS011;2549;52.128;21.068;2023-08-31T03:29:53;6.03;;;2.40;;
5060;SDS011;2549;52.128;21.068;2023-08-31T03:32:20;4.00;;;2.37;;
5060;SDS011;2549;52.128;21.068;2023-08-31T03:34:47;6.40;;;2.57;;
5060;SDS011;2549;52.128;21.068;2023-08-31T03:37:13;3.90;;;2.50;;
5060;SDS011;2549;52.128;21.068;2023-08-31T03:39:40;3.80;;;2.97;;
5060;SDS011;2549;52.128;21.068;2023-08-31T03:42:09;2.43;;;2.33;;
5060;SDS011;2549;52.128;21.068;2023-08-31T03:44:36;2.93;;;2.70;;
5060;SDS011;2549;52.128;21.068;2023-08-31T03:47:03;2.87;;;2.33;;
5060;SDS011;2549;52.128;21.068;2023-08-31T03:49:30;2.93;;;2.77;;
5060;SDS011;2549;52.128;21.068;2023-08-31T03:52:01;2.50;;;2.30;;
5060;SDS011;2549;52.128;21.068;2023-08-31T03:54:28;2.50;;;2.30;;
5060;SDS011;2549;52.128;21.068;2023-08-31T03:56:54;2.90;;;2.70;;
5060;SDS011;2549;52.128;21.068;2023-08-31T03:59:21;3.80;;;2.43;;
5060;SDS011;2549;52.128;21.068;2023-08-31T04:01:48;3.33;;;2.30;;
5060;SDS011;2549;52.128;21.068;2023-08-31T04:04:15;2.10;;;2.00;;
5060;SDS011;2549;52.128;21.068;2023-08-31T04:06:42;2.77;;;2.50;;
5060;SDS011;2549;52.128;21.068;2023-08-31T04:09:09;2.77;;;2.10;;
5060;SDS011;2549;52.128;21.068;2023-08-31T04:11:36;2.50;;;2.40;;
5060;SDS011;2549;52.128;21.068;2023-08-31T04:14:03;2.60;;;2.40;;
5060;SDS011;2549;52.128;21.068;2023-08-31T04:16:31;2.70;;;2.33;;
5060;SDS011;2549;52.128;21.068;2023-08-31T04:18:58;2.20;;;2.10;;
5060;SDS011;2549;52.128;21.068;2023-08-31T04:21:25;3.73;;;2.20;;
5060;SDS011;2549;52.128;21.068;2023-08-31T04:23:52;3.47;;;2.40;;
5060;SDS011;2549;52.128;21.068;2023-08-31T04:26:18;2.40;;;2.27;;
5060;SDS011;2549;52.128;21.068;2023-08-31T04:28:46;2.90;;;2.70;;
5060;SDS011;2549;52.128;21.068;2023-08-31T04:31:13;2.17;;;2.00;;
5060;SDS011;2549;52.128;21.068;2023-08-31T04:33:40;3.00;;;2.00;;
5060;SDS011;2549;52.128;21.068;2023-08-31T04:36:07;2.80;;;2.70;;
5060;SDS011;2549;52.128;21.068;2023-08-31T04:38:34;2.60;;;2.23;;
5060;SDS011;2549;52.128;21.068;2023-08-31T04:41:01;2.53;;;2.33;;
5060;SDS011;2549;52.128;21.068;2023-08-31T04:43:28;2.37;;;1.80;;
5060;SDS011;2549;52.128;21.068;2023-08-31T04:45:55;3.07;;;1.87;;
5060;SDS011;2549;52.128;21.068;2023-08-31T04:48:22;3.43;;;1.60;;
5060;SDS011;2549;52.128;21.068;2023-08-31T04:50:49;2.23;;;2.13;;
5060;SDS011;2549;52.128;21.068;2023-08-31T04:53:16;3.53;;;2.03;;
5060;SDS011;2549;52.128;21.068;2023-08-31T04:55:43;2.50;;;2.30;;
5060;SDS011;2549;52.128;21.068;2023-08-31T04:58:10;4.60;;;1.90;;
5060;SDS011;2549;52.128;21.068;2023-08-31T05:00:37;3.57;;;2.00;;
5060;SDS011;2549;52.128;21.068;2023-08-31T05:03:05;1.90;;;1.80;;
5060;SDS011;2549;52.128;21.068;2023-08-31T05:05:32;5.50;;;1.97;;
5060;SDS011;2549;52.128;21.068;2023-08-31T05:08:01;2.03;;;1.93;;
5060;SDS011;2549;52.128;21.068;2023-08-31T05:10:29;5.13;;;2.37;;
5060;SDS011;2549;52.128;21.068;2023-08-31T05:12:56;3.00;;;1.97;;
5060;SDS011;2549;52.128;21.068;2023-08-31T05:15:23;2.70;;;2.00;;
5060;SDS011;2549;52.128;21.068;2023-08-31T05:17:53;1.90;;;1.80;;
5060;SDS011;2549;52.128;21.068;2023-08-31T05:20:21;2.40;;;2.10;;
5060;SDS011;2549;52.128;21.068;2023-08-31T05:22:49;5.10;;;2.23;;
5060;SDS011;2549;52.128;21.068;2023-08-31T05:25:16;4.00;;;2.20;;
5060;SDS011;2549;52.128;21.068;2023-08-31T05:27:44;2.70;;;1.87;;
5060;SDS011;2549;52.128;21.068;2023-08-31T05:30:11;2.20;;;2.10;;
5060;SDS011;2549;52.128;21.068;2023-08-31T05:32:38;2.60;;;1.90;;
5060;SDS011;2549;52.128;21.068;2023-08-31T05:35:05;2.00;;;1.90;;
5060;SDS011;2549;52.128;21.068;2023-08-31T05:37:33;2.40;;;2.13;;
5060;SDS011;2549;52.128;21.068;2023-08-31T05:40:04;2.10;;;2.00;;
5060;SDS011;2549;52.128;21.068;2023-08-31T05:42:37;1.73;;;1.63;;
5060;SDS011;2549;52.128;21.068;2023-08-31T05:45:04;3.10;;;1.93;;
5060;SDS011;2549;52.128;21.068;2023-08-31T05:47:31;2.70;;;2.27;;
5060;SDS011;2549;52.128;21.068;2023-08-31T05:49:58;3.70;;;2.20;;
5060;SDS011;2549;52.128;21.068;2023-08-31T05:52:25;2.27;;;2.07;;
5060;SDS011;2549;52.128;21.068;2023-08-31T05:54:52;2.90;;;2.50;;
5060;SDS011;2549;52.128;21.068;2023-08-31T05:57:22;2.93;;;1.70;;
5060;SDS011;2549;52.128;21.068;2023-08-31T05:59:49;2.50;;;2.30;;
5060;SDS011;2549;52.128;21.068;2023-08-31T06:02:16;2.00;;;1.77;;
5060;SDS011;2549;52.128;21.068;2023-08-31T06:04:43;2.30;;;2.10;;
5060;SDS011;2549;52.128;21.068;2023-08-31T06:07:10;2.20;;;1.97;;
5060;SDS011;2549;52.128;21.068;2023-08-31T06:09:37;2.63;;;2.17;;
5060;SDS011;2549;52.128;21.068;2023-08-31T06:12:05;2.50;;;1.90;;
5060;SDS011;2549;52.128;21.068;2023-08-31T06:14:32;3.10;;;1.80;;
5060;SDS011;2549;52.128;21.068;2023-08-31T06:16:59;1.40;;;1.40;;
5060;SDS011;2549;52.128;21.068;2023-08-31T06:19:26;1.80;;;1.43;;
5060;SDS011;2549;52.128;21.068;2023-08-31T06:21:53;2.63;;;1.33;;
5060;SDS011;2549;52.128;21.068;2023-08-31T06:24:20;2.07;;;1.40;;
5060;SDS011;2549;52.128;21.068;2023-08-31T06:26:46;1.57;;;1.47;;
5060;SDS011;2549;52.128;21.068;2023-08-31T06:29:13;1.47;;;1.20;;
5060;SDS011;2549;52.128;21.068;2023-08-31T06:31:40;4.23;;;1.67;;
5060;SDS011;2549;52.128;21.068;2023-08-31T06:34:07;3.70;;;1.77;;
5060;SDS011;2549;52.128;21.068;2023-08-31T06:36:34;1.70;;;1.60;;
5060;SDS011;2549;52.128;21.068;2023-08-31T06:39:01;1.73;;;1.60;;
5060;SDS011;2549;52.128;21.068;2023-08-31T06:41:28;1.30;;;1.20;;
5060;SDS011;2549;52.128;21.068;2023-08-31T06:43:54;1.30;;;1.30;;
5060;SDS011;2549;52.128;21.068;2023-08-31T06:46:21;1.23;;;1.13;;
5060;SDS011;2549;52.128;21.068;2023-08-31T06:48:50;1.57;;;1.20;;
5060;SDS011;2549;52.128;21.068;2023-08-31T06:51:18;4.83;;;1.63;;
5060;SDS011;2549;52.128;21.068;2023-08-31T06:53:49;4.10;;;1.70;;
5060;SDS011;2549;52.128;21.068;2023-08-31T06:56:15;1.33;;;1.23;;
5060;SDS011;2549;52.128;21.068;2023-08-31T06:58:42;2.30;;;1.80;;
5060;SDS011;2549;52.128;21.068;2023-08-31T07:01:11;2.20;;;1.63;;
5060;SDS011;2549;52.128;21.068;2023-08-31T07:03:39;3.80;;;1.53;;
5060;SDS011;2549;52.128;21.068;2023-08-31T07:06:06;1.27;;;1.20;;
5060;SDS011;2549;52.128;21.068;2023-08-31T07:08:33;1.40;;;1.30;;
5060;SDS011;2549;52.128;21.068;2023-08-31T07:11:00;1.23;;;1.13;;
5060;SDS011;2549;52.128;21.068;2023-08-31T07:13:27;1.30;;;1.20;;
5060;SDS011;2549;52.128;21.068;2023-08-31T07:15:54;1.60;;;1.50;;
5060;SDS011;2549;52.128;21.068;2023-08-31T07:18:20;4.07;;;1.80;;
5060;SDS011;2549;52.128;21.068;2023-08-31T07:20:47;6.73;;;3.17;;
5060;SDS011;2549;52.128;21.068;2023-08-31T07:23:14;1.20;;;1.20;;
5060;SDS011;2549;52.128;21.068;2023-08-31T07:25:41;1.40;;;1.33;;
5060;SDS011;2549;52.128;21.068;2023-08-31T07:28:09;1.40;;;1.30;;
5060;SDS011;2549;52.128;21.068;2023-08-31T07:30:36;1.67;;;1.53;;
5060;SDS011;2549;52.128;21.068;2023-08-31T07:33:03;2.50;;;1.60;;
5060;SDS011;2549;52.128;21.068;2023-08-31T07:35:50;2.40;;;1.10;;
5060;SDS011;2549;52.128;21.068;2023-08-31T07:38:17;1.40;;;1.30;;
5060;SDS011;2549;52.128;21.068;2023-08-31T07:40:44;1.40;;;1.30;;
5060;SDS011;2549;52.128;21.068;2023-08-31T07:43:11;1.37;;;1.27;;
5060;SDS011;2549;52.128;21.068;2023-08-31T07:45:38;3.13;;;1.17;;
5060;SDS011;2549;52.128;21.068;2023-08-31T07:48:05;1.33;;;1.23;;
5060;SDS011;2549;52.128;21.068;2023-08-31T07:50:33;2.47;;;1.40;;
5060;SDS011;2549;52.128;21.068;2023-08-31T07:53:00;2.07;;;1.70;;
5060;SDS011;2549;52.128;21.068;2023-08-31T07:55:27;2.37;;;2.17;;
5060;SDS011;2549;52.128;21.068;2023-08-31T07:57:54;4.30;;;1.87;;
5060;SDS011;2549;52.128;21.068;2023-08-31T08:00:21;1.50;;;1.40;;
5060;SDS011;2549;52.128;21.068;2023-08-31T08:02:48;1.30;;;1.20;;
5060;SDS011;2549;52.128;21.068;2023-08-31T08:05:15;1.30;;;1.20;;
5060;SDS011;2549;52.128;21.068;2023-08-31T08:07:41;1.37;;;1.37;;
5060;SDS011;2549;52.128;21.068;2023-08-31T08:10:09;1.80;;;1.53;;
5060;SDS011;2549;52.128;21.068;2023-08-31T08:12:39;1.17;;;1.17;;
5060;SDS011;2549;52.128;21.068;2023-08-31T08:15:12;1.73;;;1.40;;
5060;SDS011;2549;52.128;21.068;2023-08-31T08:17:39;1.70;;;1.60;;
5060;SDS011;2549;52.128;21.068;2023-08-31T08:20:06;1.60;;;1.17;;
5060;SDS011;2549;52.128;21.068;2023-08-31T08:22:34;2.40;;;1.13;;
5060;SDS011;2549;52.128;21.068;2023-08-31T08:25:02;1.57;;;1.47;;
5060;SDS011;2549;52.128;21.068;2023-08-31T08:27:30;1.27;;;1.20;;
5060;SDS011;2549;52.128;21.068;2023-08-31T08:29:58;1.33;;;1.33;;
5060;SDS011;2549;52.128;21.068;2023-08-31T08:32:25;2.50;;;1.43;;
5060;SDS011;2549;52.128;21.068;2023-08-31T08:34:52;2.30;;;1.53;;
5060;SDS011;2549;52.128;21.068;2023-08-31T08:37:19;4.90;;;1.37;;
5060;SDS011;2549;52.128;21.068;2023-08-31T08:39:51;1.57;;;1.47;;
5060;SDS011;2549;52.128;21.068;2023-08-31T08:42:19;2.40;;;1.57;;
5060;SDS011;2549;52.128;21.068;2023-08-31T08:44:50;1.20;;;1.20;;
5060;SDS011;2549;52.128;21.068;2023-08-31T08:47:18;1.17;;;1.17;;
5060;SDS011;2549;52.128;21.068;2023-08-31T08:49:45;1.27;;;1.20;;
5060;SDS011;2549;52.128;21.068;2023-08-31T08:52:14;1.33;;;1.23;;
5060;SDS011;2549;52.128;21.068;2023-08-31T08:54:42;1.27;;;1.17;;
5060;SDS011;2549;52.128;21.068;2023-08-31T08:57:09;1.30;;;1.30;;
5060;SDS011;2549;52.128;21.068;2023-08-31T08:59:36;1.57;;;1.27;;
5060;SDS011;2549;52.128;21.068;2023-08-31T09:02:03;1.67;;;1.57;;
5060;SDS011;2549;52.128;21.068;2023-08-31T09:04:30;2.80;;;1.00;;
5060;SDS011;2549;52.128;21.068;2023-08-31T09:06:58;1.40;;;1.03;;
5060;SDS011;2549;52.128;21.068;2023-08-31T09:09:25;2.00;;;1.47;;
5060;SDS011;2549;52.128;21.068;2023-08-31T09:11:52;2.20;;;1.50;;
5060;SDS011;2549;52.128;21.068;2023-08-31T09:14:21;1.90;;;1.07;;
5060;SDS011;2549;52.128;21.068;2023-08-31T09:16:49;3.13;;;1.30;;
5060;SDS011;2549;52.128;21.068;2023-08-31T09:19:21;3.33;;;1.00;;
5060;SDS011;2549;52.128;21.068;2023-08-31T09:21:50;1.40;;;1.30;;
5060;SDS011;2549;52.128;21.068;2023-08-31T09:24:18;0.93;;;0.93;;
5060;SDS011;2549;52.128;21.068;2023-08-31T09:29:13;1.40;;;1.30;;
5060;SDS011;2549;52.128;21.068;2023-08-31T09:31:44;2.33;;;1.57;;
5060;SDS011;2549;52.128;21.068;2023-08-31T09:34:14;1.17;;;1.17;;
5060;SDS011;2549;52.128;21.068;2023-08-31T09:36:41;1.43;;;1.30;;
5060;SDS011;2549;52.128;21.068;2023-08-31T09:39:08;1.70;;;1.20;;
5060;SDS011;2549;52.128;21.068;2023-08-31T09:41:51;1.43;;;1.33;;
5060;SDS011;2549;52.128;21.068;2023-08-31T09:44:21;1.00;;;1.00;;
5060;SDS011;2549;52.128;21.068;2023-08-31T09:46:48;1.77;;;1.20;;
5060;SDS011;2549;52.128;21.068;2023-08-31T09:49:16;7.80;;;1.10;;
5060;SDS011;2549;52.128;21.068;2023-08-31T09:51:44;1.23;;;1.10;;
5060;SDS011;2549;52.128;21.068;2023-08-31T09:54:13;1.10;;;1.10;;
5060;SDS011;2549;52.128;21.068;2023-08-31T09:56:42;1.10;;;1.10;;
5060;SDS011;2549;52.128;21.068;2023-08-31T09:59:11;1.43;;;1.10;;
5060;SDS011;2549;52.128;21.068;2023-08-31T10:01:39;1.77;;;1.20;;
5060;SDS011;2549;52.128;21.068;2023-08-31T10:04:07;1.43;;;1.33;;
5060;SDS011;2549;52.128;21.068;2023-08-31T10:06:39;1.50;;;1.40;;
5060;SDS011;2549;52.128;21.068;2023-08-31T10:09:06;1.50;;;1.40;;
5060;SDS011;2549;52.128;21.068;2023-08-31T10:11:36;1.60;;;1.50;;
5060;SDS011;2549;52.128;21.068;2023-08-31T10:14:05;1.83;;;1.50;;
5060;SDS011;2549;52.128;21.068;2023-08-31T10:16:32;1.80;;;1.70;;
5060;SDS011;2549;52.128;21.068;2023-08-31T10:18:59;3.33;;;1.60;;
5060;SDS011;2549;52.128;21.068;2023-08-31T10:21:26;2.30;;;1.40;;
5060;SDS011;2549;52.128;21.068;2023-08-31T10:23:53;1.83;;;1.13;;
5060;SDS011;2549;52.128;21.068;2023-08-31T10:26:26;1.30;;;1.20;;
5060;SDS011;2549;52.128;21.068;2023-08-31T10:28:58;2.93;;;1.23;;
5060;SDS011;2549;52.128;21.068;2023-08-31T10:31:29;1.40;;;1.40;;
5060;SDS011;2549;52.128;21.068;2023-08-31T10:34:04;1.77;;;1.60;;
5060;SDS011;2549;52.128;21.068;2023-08-31T10:36:45;2.77;;;1.57;;
5060;SDS011;2549;52.128;21.068;2023-08-31T10:39:23;1.30;;;1.20;;
5060;SDS011;2549;52.128;21.068;2023-08-31T10:41:56;1.23;;;1.23;;
5060;SDS011;2549;52.128;21.068;2023-08-31T10:44:27;1.47;;;1.40;;
5060;SDS011;2549;52.128;21.068;2023-08-31T10:46:59;2.33;;;1.40;;
5060;SDS011;2549;52.128;21.068;2023-08-31T10:49:29;2.63;;;1.40;;
5060;SDS011;2549;52.128;21.068;2023-08-31T10:52:17;2.10;;;2.00;;
5060;SDS011;2549;52.128;21.068;2023-08-31T10:54:51;1.80;;;1.70;;
5060;SDS011;2549;52.128;21.068;2023-08-31T10:57:29;1.40;;;1.40;;
5060;SDS011;2549;52.128;21.068;2023-08-31T10:59:57;3.10;;;1.43;;
5060;SDS011;2549;52.128;21.068;2023-08-31T11:02:34;2.53;;;1.50;;
5060;SDS011;2549;52.128;21.068;2023-08-31T11:07:38;2.50;;;1.60;;
5060;SDS011;2549;52.128;21.068;2023-08-31T11:10:17;1.80;;;1.70;;
5060;SDS011;2549;52.128;21.068;2023-08-31T11:12:50;4.03;;;1.40;;
5060;SDS011;2549;52.128;21.068;2023-08-31T11:15:19;1.80;;;1.70;;
5060;SDS011;2549;52.128;21.068;2023-08-31T11:17:49;1.20;;;1.20;;
5060;SDS011;2549;52.128;21.068;2023-08-31T11:20:18;3.73;;;1.50;;
5060;SDS011;2549;52.128;21.068;2023-08-31T11:22:47;1.77;;;1.67;;
5060;SDS011;2549;52.128;21.068;2023-08-31T11:25:21;1.93;;;1.83;;
5060;SDS011;2549;52.128;21.068;2023-08-31T11:30:28;1.73;;;1.63;;
5060;SDS011;2549;52.128;21.068;2023-08-31T11:33:06;2.00;;;1.90;;
5060;SDS011;2549;52.128;21.068;2023-08-31T11:35:35;1.80;;;1.70;;
5060;SDS011;2549;52.128;21.068;2023-08-31T11:38:03;1.60;;;1.50;;
5060;SDS011;2549;52.128;21.068;2023-08-31T11:40:30;1.97;;;1.87;;
5060;SDS011;2549;52.128;21.068;2023-08-31T11:42:58;2.07;;;1.97;;
5060;SDS011;2549;52.128;21.068;2023-08-31T11:45:29;1.40;;;1.30;;
5060;SDS011;2549;52.128;21.068;2023-08-31T11:47:57;2.23;;;2.13;;
5060;SDS011;2549;52.128;21.068;2023-08-31T11:50:25;1.50;;;1.50;;
5060;SDS011;2549;52.128;21.068;2023-08-31T11:52:53;3.07;;;1.73;;
5060;SDS011;2549;52.128;21.068;2023-08-31T11:55:21;1.70;;;1.60;;
5060;SDS011;2549;52.128;21.068;2023-08-31T11:57:50;2.57;;;1.87;;
5060;SDS011;2549;52.128;21.068;2023-08-31T12:00:18;2.20;;;1.87;;
5060;SDS011;2549;52.128;21.068;2023-08-31T12:02:59;1.60;;;1.50;;
5060;SDS011;2549;52.128;21.068;2023-08-31T12:05:27;1.80;;;1.70;;
5060;SDS011;2549;52.128;21.068;2023-08-31T12:07:55;2.33;;;2.13;;
5060;SDS011;2549;52.128;21.068;2023-08-31T12:10:25;1.83;;;1.73;;
5060;SDS011;2549;52.128;21.068;2023-08-31T12:12:53;3.53;;;1.80;;
5060;SDS011;2549;52.128;21.068;2023-08-31T12:15:22;2.60;;;1.53;;
5060;SDS011;2549;52.128;21.068;2023-08-31T12:17:49;5.80;;;1.73;;
5060;SDS011;2549;52.128;21.068;2023-08-31T12:20:24;3.60;;;3.30;;
5060;SDS011;2549;52.128;21.068;2023-08-31T12:22:53;2.37;;;2.07;;
5060;SDS011;2549;52.128;21.068;2023-08-31T12:25:20;1.90;;;1.73;;
5060;SDS011;2549;52.128;21.068;2023-08-31T12:27:48;1.50;;;1.43;;
5060;SDS011;2549;52.128;21.068;2023-08-31T12:30:15;1.77;;;1.50;;
5060;SDS011;2549;52.128;21.068;2023-08-31T12:32:48;1.87;;;1.77;;
5060;SDS011;2549;52.128;21.068;2023-08-31T12:35:15;2.20;;;2.00;;
5060;SDS011;2549;52.128;21.068;2023-08-31T12:37:42;1.77;;;1.67;;
5060;SDS011;2549;52.128;21.068;2023-08-31T12:40:09;3.23;;;1.87;;
5060;SDS011;2549;52.128;21.068;2023-08-31T12:42:36;2.50;;;1.83;;
5060;SDS011;2549;52.128;21.068;2023-08-31T12:45:03;3.37;;;1.70;;
5060;SDS011;2549;52.128;21.068;2023-08-31T12:47:34;2.00;;;1.77;;
5060;SDS011;2549;52.128;21.068;2023-08-31T12:50:01;2.60;;;1.97;;
5060;SDS011;2549;52.128;21.068;2023-08-31T12:52:29;2.23;;;1.70;;
5060;SDS011;2549;52.128;21.068;2023-08-31T12:54:56;2.00;;;1.90;;
5060;SDS011;2549;52.128;21.068;2023-08-31T12:57:23;3.00;;;1.60;;
5060;SDS011;2549;52.128;21.068;2023-08-31T12:59:50;2.17;;;1.97;;
5060;SDS011;2549;52.128;21.068;2023-08-31T13:02:16;3.63;;;1.90;;
5060;SDS011;2549;52.128;21.068;2023-08-31T13:04:43;1.77;;;1.53;;
5060;SDS011;2549;52.128;21.068;2023-08-31T13:07:11;1.63;;;1.53;;
5060;SDS011;2549;52.128;21.068;2023-08-31T13:09:37;2.03;;;1.47;;
5060;SDS011;2549;52.128;21.068;2023-08-31T13:12:04;2.70;;;2.10;;
5060;SDS011;2549;52.128;21.068;2023-08-31T13:14:31;2.13;;;1.90;;
5060;SDS011;2549;52.128;21.068;2023-08-31T13:16:58;2.20;;;2.10;;
5060;SDS011;2549;52.128;21.068;2023-08-31T13:19:25;2.50;;;1.80;;
5060;SDS011;2549;52.128;21.068;2023-08-31T13:21:55;1.70;;;1.60;;
5060;SDS011;2549;52.128;21.068;2023-08-31T13:24:21;2.03;;;1.70;;
5060;SDS011;2549;52.128;21.068;2023-08-31T13:26:48;4.13;;;1.70;;
5060;SDS011;2549;52.128;21.068;2023-08-31T13:29:15;2.10;;;2.00;;
5060;SDS011;2549;52.128;21.068;2023-08-31T13:31:42;1.63;;;1.53;;
5060;SDS011;2549;52.128;21.068;2023-08-31T13:34:10;1.63;;;1.63;;
5060;SDS011;2549;52.128;21.068;2023-08-31T13:36:37;1.83;;;1.73;;
5060;SDS011;2549;52.128;21.068;2023-08-31T13:39:04;3.33;;;2.50;;
5060;SDS011;2549;52.128;21.068;2023-08-31T13:41:31;1.80;;;1.70;;
5060;SDS011;2549;52.128;21.068;2023-08-31T13:43:58;1.30;;;1.30;;
5060;SDS011;2549;52.128;21.068;2023-08-31T13:46:25;1.83;;;1.73;;
5060;SDS011;2549;52.128;21.068;2023-08-31T13:48:52;1.50;;;1.40;;
5060;SDS011;2549;52.128;21.068;2023-08-31T13:51:18;1.60;;;1.40;;
5060;SDS011;2549;52.128;21.068;2023-08-31T13:53:45;2.60;;;2.27;;
5060;SDS011;2549;52.128;21.068;2023-08-31T13:56:13;1.87;;;1.77;;
5060;SDS011;2549;52.128;21.068;2023-08-31T13:58:40;2.00;;;1.90;;
5060;SDS011;2549;52.128;21.068;2023-08-31T14:01:07;6.50;;;2.13;;
5060;SDS011;2549;52.128;21.068;2023-08-31T14:03:34;1.87;;;1.77;;
5060;SDS011;2549;52.128;21.068;2023-08-31T14:06:01;5.40;;;1.70;;
5060;SDS011;2549;52.128;21.068;2023-08-31T14:08:32;1.97;;;1.87;;
5060;SDS011;2549;52.128;21.068;2023-08-31T14:10:59;2.10;;;1.80;;
5060;SDS011;2549;52.128;21.068;2023-08-31T14:13:26;1.87;;;1.77;;
5060;SDS011;2549;52.128;21.068;2023-08-31T14:15:52;2.00;;;1.90;;
5060;SDS011;2549;52.128;21.068;2023-08-31T14:18:20;3.47;;;1.63;;
5060;SDS011;2549;52.128;21.068;2023-08-31T14:20:48;2.00;;;1.77;;
5060;SDS011;2549;52.128;21.068;2023-08-31T14:23:14;6.23;;;2.10;;
5060;SDS011;2549;52.128;21.068;2023-08-31T14:25:42;2.43;;;2.20;;
5060;SDS011;2549;52.128;21.068;2023-08-31T14:28:09;3.20;;;2.10;;
5060;SDS011;2549;52.128;21.068;2023-08-31T14:30:36;2.27;;;2.00;;
5060;SDS011;2549;52.128;21.068;2023-08-31T14:33:03;2.10;;;1.93;;
5060;SDS011;2549;52.128;21.068;2023-08-31T14:35:31;2.33;;;2.13;;
5060;SDS011;2549;52.128;21.068;2023-08-31T14:37:58;1.90;;;1.80;;
5060;SDS011;2549;52.128;21.068;2023-08-31T14:40:25;2.40;;;2.20;;
5060;SDS011;2549;52.128;21.068;2023-08-31T14:42:52;4.03;;;1.90;;
5060;SDS011;2549;52.128;21.068;2023-08-31T14:45:23;2.67;;;2.47;;
5060;SDS011;2549;52.128;21.068;2023-08-31T14:47:50;2.20;;;2.10;;
5060;SDS011;2549;52.128;21.068;2023-08-31T14:50:19;5.00;;;2.97;;
5060;SDS011;2549;52.128;21.068;2023-08-31T14:52:47;4.47;;;2.50;;
5060;SDS011;2549;52.128;21.068;2023-08-31T14:55:15;3.17;;;2.80;;
5060;SDS011;2549;52.128;21.068;2023-08-31T14:57:41;2.57;;;2.37;;
5060;SDS011;2549;52.128;21.068;2023-08-31T15:00:09;3.33;;;3.03;;
5060;SDS011;2549;52.128;21.068;2023-08-31T15:02:36;3.03;;;2.83;;
5060;SDS011;2549;52.128;21.068;2023-08-31T15:05:03;4.70;;;3.20;;
5060;SDS011;2549;52.128;21.068;2023-08-31T15:07:31;3.37;;;3.07;;
5060;SDS011;2549;52.128;21.068;2023-08-31T15:09:58;3.53;;;3.20;;
5060;SDS011;2549;52.128;21.068;2023-08-31T15:12:26;10.73;;;3.37;;
5060;SDS011;2549;52.128;21.068;2023-08-31T15:14:53;5.30;;;3.40;;